Tracys Landing, Maryland
Current Conditions -  °F | °C
As of 2:54 PM on Friday 19 Dec 2014 (Local Time) from KNAK Reporting Station
Broken Clouds Broken Clouds  
Wind Chill: 33°   Ceiling: 4200
Heat Index: 40°   Visibility: 10mi
Dew Point: 24°   Wind: 10mph
Humidity: 53%   Direction: 300°WNW
Pressure: 30.13"   Gusts: NA
Location:  38.78°N, 76.6°W
Report Text: KNAK 191954Z AUTO 30009KT 10SM BKN042 04/M04 A3013 RMK AO2 SLP206 T00441044
Loading
Personal Weather Stations






























Interactive Weather Map New forecast layout! Learn more

10-Day Weather Forecast

Advertisements
Track Severe Weather on mobile